sensor_id;sensor_type;location;lat;lon;timestamp;temperature;humidity
5344;DHT22;2694;48.954;8.928;2024-01-16T00:01:06;-0.50;99.90
5344;DHT22;2694;48.954;8.928;2024-01-16T00:03:34;-0.60;99.90
5344;DHT22;2694;48.954;8.928;2024-01-16T00:06:01;-0.60;99.90
5344;DHT22;2694;48.954;8.928;2024-01-16T00:08:28;-0.40;99.90
5344;DHT22;2694;48.954;8.928;2024-01-16T00:10:55;-0.50;99.90
5344;DHT22;2694;48.954;8.928;2024-01-16T00:13:21;-0.50;99.90
5344;DHT22;2694;48.954;8.928;2024-01-16T00:15:48;-0.50;99.90
5344;DHT22;2694;48.954;8.928;2024-01-16T00:18:17;-0.50;99.90
5344;DHT22;2694;48.954;8.928;2024-01-16T00:20:44;-0.50;99.90
5344;DHT22;2694;48.954;8.928;2024-01-16T00:23:11;-0.60;99.90
5344;DHT22;2694;48.954;8.928;2024-01-16T00:25:38;-0.50;99.90
5344;DHT22;2694;48.954;8.928;2024-01-16T00:28:05;-0.60;99.90
5344;DHT22;2694;48.954;8.928;2024-01-16T00:30:32;-0.60;99.90
5344;DHT22;2694;48.954;8.928;2024-01-16T00:32:59;-0.50;99.90
5344;DHT22;2694;48.954;8.928;2024-01-16T00:35:29;-0.60;99.90
5344;DHT22;2694;48.954;8.928;2024-01-16T00:37:56;-0.60;99.90
5344;DHT22;2694;48.954;8.928;2024-01-16T00:40:23;-0.60;99.90
5344;DHT22;2694;48.954;8.928;2024-01-16T00:42:50;-0.60;99.90
5344;DHT22;2694;48.954;8.928;2024-01-16T00:45:17;-0.60;99.90
5344;DHT22;2694;48.954;8.928;2024-01-16T00:47:43;-0.60;99.90
5344;DHT22;2694;48.954;8.928;2024-01-16T00:50:10;-0.50;99.90
5344;DHT22;2694;48.954;8.928;2024-01-16T00:52:39;-0.40;99.90
5344;DHT22;2694;48.954;8.928;2024-01-16T00:55:06;-0.50;99.90
5344;DHT22;2694;48.954;8.928;2024-01-16T00:57:33;-0.50;99.90
5344;DHT22;2694;48.954;8.928;2024-01-16T01:00:00;-0.40;99.90
5344;DHT22;2694;48.954;8.928;2024-01-16T01:02:26;-0.40;99.90
5344;DHT22;2694;48.954;8.928;2024-01-16T01:04:53;-0.40;99.90
5344;DHT22;2694;48.954;8.928;2024-01-16T01:07:20;-0.40;99.90
5344;DHT22;2694;48.954;8.928;2024-01-16T01:09:48;-0.40;99.90
5344;DHT22;2694;48.954;8.928;2024-01-16T01:12:15;-0.40;99.90
5344;DHT22;2694;48.954;8.928;2024-01-16T01:14:42;-0.40;99.90
5344;DHT22;2694;48.954;8.928;2024-01-16T01:17:09;-0.40;99.90
5344;DHT22;2694;48.954;8.928;2024-01-16T01:19:36;-0.40;99.90
5344;DHT22;2694;48.954;8.928;2024-01-16T01:22:03;-0.40;99.90
5344;DHT22;2694;48.954;8.928;2024-01-16T01:24:30;-0.50;99.90
5344;DHT22;2694;48.954;8.928;2024-01-16T01:26:58;-0.50;99.90
5344;DHT22;2694;48.954;8.928;2024-01-16T01:29:25;-0.40;99.90
5344;DHT22;2694;48.954;8.928;2024-01-16T01:31:51;-0.40;99.90
5344;DHT22;2694;48.954;8.928;2024-01-16T01:34:18;-0.40;99.90
5344;DHT22;2694;48.954;8.928;2024-01-16T01:36:45;-0.40;99.90
5344;DHT22;2694;48.954;8.928;2024-01-16T01:39:12;-0.40;99.90
5344;DHT22;2694;48.954;8.928;2024-01-16T01:41:39;-0.40;99.90
5344;DHT22;2694;48.954;8.928;2024-01-16T01:44:07;-0.50;99.90
5344;DHT22;2694;48.954;8.928;2024-01-16T01:46:41;-0.40;99.90
5344;DHT22;2694;48.954;8.928;2024-01-16T01:49:08;-0.50;99.90
5344;DHT22;2694;48.954;8.928;2024-01-16T01:51:35;-0.50;99.90
5344;DHT22;2694;48.954;8.928;2024-01-16T01:54:02;-0.50;99.90
5344;DHT22;2694;48.954;8.928;2024-01-16T01:56:29;-0.50;99.90
5344;DHT22;2694;48.954;8.928;2024-01-16T01:58:57;-0.50;99.90
5344;DHT22;2694;48.954;8.928;2024-01-16T02:01:27;-0.50;99.90
5344;DHT22;2694;48.954;8.928;2024-01-16T02:03:56;-0.60;99.90
5344;DHT22;2694;48.954;8.928;2024-01-16T02:06:23;-0.50;99.90
5344;DHT22;2694;48.954;8.928;2024-01-16T02:08:51;-0.60;99.90
5344;DHT22;2694;48.954;8.928;2024-01-16T02:11:18;-0.70;99.90
5344;DHT22;2694;48.954;8.928;2024-01-16T02:13:45;-0.70;99.90
5344;DHT22;2694;48.954;8.928;2024-01-16T02:16:18;-0.70;99.90
5344;DHT22;2694;48.954;8.928;2024-01-16T02:18:47;-0.80;99.90
5344;DHT22;2694;48.954;8.928;2024-01-16T02:21:17;-0.80;99.90
5344;DHT22;2694;48.954;8.928;2024-01-16T02:23:46;-0.80;99.90
5344;DHT22;2694;48.954;8.928;2024-01-16T02:26:14;-0.80;99.90
5344;DHT22;2694;48.954;8.928;2024-01-16T02:28:41;-0.90;99.90
5344;DHT22;2694;48.954;8.928;2024-01-16T02:31:08;-1.00;99.90
5344;DHT22;2694;48.954;8.928;2024-01-16T02:33:35;-1.10;99.90
5344;DHT22;2694;48.954;8.928;2024-01-16T02:36:02;-1.10;99.90
5344;DHT22;2694;48.954;8.928;2024-01-16T02:38:29;-1.20;99.90
5344;DHT22;2694;48.954;8.928;2024-01-16T02:40:57;-1.30;99.90
5344;DHT22;2694;48.954;8.928;2024-01-16T02:43:24;-1.30;99.90
5344;DHT22;2694;48.954;8.928;2024-01-16T02:45:52;-1.30;99.90
5344;DHT22;2694;48.954;8.928;2024-01-16T02:48:19;-1.40;99.90
5344;DHT22;2694;48.954;8.928;2024-01-16T02:50:48;-1.40;99.90
5344;DHT22;2694;48.954;8.928;2024-01-16T02:53:15;-1.50;99.90
5344;DHT22;2694;48.954;8.928;2024-01-16T02:55:42;-1.50;99.90
5344;DHT22;2694;48.954;8.928;2024-01-16T02:58:10;-1.40;99.90
5344;DHT22;2694;48.954;8.928;2024-01-16T03:00:37;-1.50;99.90
5344;DHT22;2694;48.954;8.928;2024-01-16T03:03:04;-1.50;99.90
5344;DHT22;2694;48.954;8.928;2024-01-16T03:05:31;-1.50;99.90
5344;DHT22;2694;48.954;8.928;2024-01-16T03:07:58;-1.60;99.90
5344;DHT22;2694;48.954;8.928;2024-01-16T03:10:25;-1.60;99.90
5344;DHT22;2694;48.954;8.928;2024-01-16T03:12:52;-1.60;99.90
5344;DHT22;2694;48.954;8.928;2024-01-16T03:15:20;-1.60;99.90
5344;DHT22;2694;48.954;8.928;2024-01-16T03:17:47;-1.60;99.90
5344;DHT22;2694;48.954;8.928;2024-01-16T03:20:15;-1.50;99.90
5344;DHT22;2694;48.954;8.928;2024-01-16T03:22:42;-1.40;99.90
5344;DHT22;2694;48.954;8.928;2024-01-16T03:25:10;-1.40;99.90
5344;DHT22;2694;48.954;8.928;2024-01-16T03:27:37;-1.30;99.90
5344;DHT22;2694;48.954;8.928;2024-01-16T03:30:06;-1.30;99.90
5344;DHT22;2694;48.954;8.928;2024-01-16T03:32:35;-1.30;99.90
5344;DHT22;2694;48.954;8.928;2024-01-16T03:35:02;-1.30;99.90
5344;DHT22;2694;48.954;8.928;2024-01-16T03:37:30;-1.30;99.90
5344;DHT22;2694;48.954;8.928;2024-01-16T03:39:57;-1.30;99.90
5344;DHT22;2694;48.954;8.928;2024-01-16T03:42:24;-1.30;99.90
5344;DHT22;2694;48.954;8.928;2024-01-16T03:44:51;-1.30;99.90
5344;DHT22;2694;48.954;8.928;2024-01-16T03:47:18;-1.30;99.90
5344;DHT22;2694;48.954;8.928;2024-01-16T03:49:46;-1.30;99.90
5344;DHT22;2694;48.954;8.928;2024-01-16T03:52:13;-1.30;99.90
5344;DHT22;2694;48.954;8.928;2024-01-16T03:54:40;-1.20;99.90
5344;DHT22;2694;48.954;8.928;2024-01-16T03:57:06;-1.30;99.90
5344;DHT22;2694;48.954;8.928;2024-01-16T03:59:36;-1.30;99.90
5344;DHT22;2694;48.954;8.928;2024-01-16T04:02:04;-1.30;99.90
5344;DHT22;2694;48.954;8.928;2024-01-16T04:04:30;-1.40;99.90
5344;DHT22;2694;48.954;8.928;2024-01-16T04:06:59;-1.50;99.90
5344;DHT22;2694;48.954;8.928;2024-01-16T04:09:25;-1.60;99.90
5344;DHT22;2694;48.954;8.928;2024-01-16T04:11:52;-1.70;99.90
5344;DHT22;2694;48.954;8.928;2024-01-16T04:14:19;-1.80;99.90
5344;DHT22;2694;48.954;8.928;2024-01-16T04:16:47;-1.80;99.90
5344;DHT22;2694;48.954;8.928;2024-01-16T04:19:14;-1.90;99.90
5344;DHT22;2694;48.954;8.928;2024-01-16T04:21:41;-2.00;99.90
5344;DHT22;2694;48.954;8.928;2024-01-16T04:24:09;-2.10;99.90
5344;DHT22;2694;48.954;8.928;2024-01-16T04:26:36;-2.10;99.90
5344;DHT22;2694;48.954;8.928;2024-01-16T04:29:03;-2.10;99.90
5344;DHT22;2694;48.954;8.928;2024-01-16T04:31:30;-2.10;99.90
5344;DHT22;2694;48.954;8.928;2024-01-16T04:33:58;-2.20;99.90
5344;DHT22;2694;48.954;8.928;2024-01-16T04:36:25;-2.20;99.90
5344;DHT22;2694;48.954;8.928;2024-01-16T04:38:52;-2.30;99.90
5344;DHT22;2694;48.954;8.928;2024-01-16T04:41:20;-2.30;99.90
5344;DHT22;2694;48.954;8.928;2024-01-16T04:43:47;-2.30;99.90
5344;DHT22;2694;48.954;8.928;2024-01-16T04:46:14;-2.20;99.90
5344;DHT22;2694;48.954;8.928;2024-01-16T04:48:41;-2.10;99.90
5344;DHT22;2694;48.954;8.928;2024-01-16T04:51:08;-2.30;99.90
5344;DHT22;2694;48.954;8.928;2024-01-16T04:53:35;-2.80;99.90
5344;DHT22;2694;48.954;8.928;2024-01-16T04:56:02;-2.40;99.90
5344;DHT22;2694;48.954;8.928;2024-01-16T04:58:30;-2.40;99.90
5344;DHT22;2694;48.954;8.928;2024-01-16T05:00:57;-2.50;99.90
5344;DHT22;2694;48.954;8.928;2024-01-16T05:03:24;-2.50;99.90
5344;DHT22;2694;48.954;8.928;2024-01-16T05:05:51;-2.50;99.90
5344;DHT22;2694;48.954;8.928;2024-01-16T05:08:18;-2.50;99.90
5344;DHT22;2694;48.954;8.928;2024-01-16T05:10:44;-2.50;99.90
5344;DHT22;2694;48.954;8.928;2024-01-16T05:13:11;-2.60;99.90
5344;DHT22;2694;48.954;8.928;2024-01-16T05:15:40;-2.60;99.90
5344;DHT22;2694;48.954;8.928;2024-01-16T05:18:07;-2.70;99.90
5344;DHT22;2694;48.954;8.928;2024-01-16T05:20:34;-2.70;99.90
5344;DHT22;2694;48.954;8.928;2024-01-16T05:23:01;-2.70;99.90
5344;DHT22;2694;48.954;8.928;2024-01-16T05:25:28;-2.60;99.90
5344;DHT22;2694;48.954;8.928;2024-01-16T05:27:55;-2.60;99.90
5344;DHT22;2694;48.954;8.928;2024-01-16T05:30:22;-2.60;99.90
5344;DHT22;2694;48.954;8.928;2024-01-16T05:32:50;-2.60;99.90
5344;DHT22;2694;48.954;8.928;2024-01-16T05:35:18;-2.70;99.90
5344;DHT22;2694;48.954;8.928;2024-01-16T05:37:45;-2.70;99.90
5344;DHT22;2694;48.954;8.928;2024-01-16T05:40:11;-2.80;99.90
5344;DHT22;2694;48.954;8.928;2024-01-16T05:42:38;-2.80;99.90
5344;DHT22;2694;48.954;8.928;2024-01-16T05:45:06;-2.70;99.90
5344;DHT22;2694;48.954;8.928;2024-01-16T05:47:33;-2.70;99.90
5344;DHT22;2694;48.954;8.928;2024-01-16T05:50:01;-2.70;99.90
5344;DHT22;2694;48.954;8.928;2024-01-16T05:52:29;-2.70;99.90
5344;DHT22;2694;48.954;8.928;2024-01-16T05:54:56;-2.70;99.90
5344;DHT22;2694;48.954;8.928;2024-01-16T05:57:25;-2.70;99.90
5344;DHT22;2694;48.954;8.928;2024-01-16T05:59:52;-2.70;99.90
5344;DHT22;2694;48.954;8.928;2024-01-16T06:02:19;-2.70;99.90
5344;DHT22;2694;48.954;8.928;2024-01-16T06:04:46;-2.70;99.90
5344;DHT22;2694;48.954;8.928;2024-01-16T06:07:14;-2.60;99.90
5344;DHT22;2694;48.954;8.928;2024-01-16T06:09:41;-2.70;99.90
5344;DHT22;2694;48.954;8.928;2024-01-16T06:12:08;-2.70;99.90
5344;DHT22;2694;48.954;8.928;2024-01-16T06:14:35;-2.60;99.90
5344;DHT22;2694;48.954;8.928;2024-01-16T06:17:01;-2.70;99.90
5344;DHT22;2694;48.954;8.928;2024-01-16T06:19:31;-2.60;99.90
5344;DHT22;2694;48.954;8.928;2024-01-16T06:21:58;-2.60;99.90
5344;DHT22;2694;48.954;8.928;2024-01-16T06:24:26;-2.60;99.90
5344;DHT22;2694;48.954;8.928;2024-01-16T06:26:53;-2.60;99.90
5344;DHT22;2694;48.954;8.928;2024-01-16T06:29:20;-2.70;99.90
5344;DHT22;2694;48.954;8.928;2024-01-16T06:31:47;-2.60;99.90
5344;DHT22;2694;48.954;8.928;2024-01-16T06:34:13;-2.60;99.90
5344;DHT22;2694;48.954;8.928;2024-01-16T06:36:40;-2.70;99.90
5344;DHT22;2694;48.954;8.928;2024-01-16T06:39:07;-2.70;99.90
5344;DHT22;2694;48.954;8.928;2024-01-16T06:41:35;-2.80;99.90
5344;DHT22;2694;48.954;8.928;2024-01-16T06:44:02;-2.80;99.90
5344;DHT22;2694;48.954;8.928;2024-01-16T06:46:29;-2.90;99.90
5344;DHT22;2694;48.954;8.928;2024-01-16T06:48:56;-2.80;99.90
5344;DHT22;2694;48.954;8.928;2024-01-16T06:51:22;-2.70;99.90
5344;DHT22;2694;48.954;8.928;2024-01-16T06:53:49;-2.60;99.90
5344;DHT22;2694;48.954;8.928;2024-01-16T06:56:16;-2.70;99.90
5344;DHT22;2694;48.954;8.928;2024-01-16T06:58:44;-2.70;99.90
5344;DHT22;2694;48.954;8.928;2024-01-16T07:01:11;-2.90;99.90
5344;DHT22;2694;48.954;8.928;2024-01-16T07:03:38;-2.80;99.90
5344;DHT22;2694;48.954;8.928;2024-01-16T07:06:05;-2.80;99.90
5344;DHT22;2694;48.954;8.928;2024-01-16T07:08:32;-2.90;99.90
5344;DHT22;2694;48.954;8.928;2024-01-16T07:10:59;-2.90;99.90
5344;DHT22;2694;48.954;8.928;2024-01-16T07:13:26;-3.00;99.90
5344;DHT22;2694;48.954;8.928;2024-01-16T07:15:54;-3.00;99.90
5344;DHT22;2694;48.954;8.928;2024-01-16T07:18:21;-2.90;99.90
5344;DHT22;2694;48.954;8.928;2024-01-16T07:20:48;-2.90;99.90
5344;DHT22;2694;48.954;8.928;2024-01-16T07:23:15;-2.90;99.90
5344;DHT22;2694;48.954;8.928;2024-01-16T07:25:42;-2.90;99.90
5344;DHT22;2694;48.954;8.928;2024-01-16T07:28:08;-2.90;99.90
5344;DHT22;2694;48.954;8.928;2024-01-16T07:30:35;-2.80;99.90
5344;DHT22;2694;48.954;8.928;2024-01-16T07:33:04;-2.80;99.90
5344;DHT22;2694;48.954;8.928;2024-01-16T07:35:31;-2.70;99.90
5344;DHT22;2694;48.954;8.928;2024-01-16T07:37:57;-2.80;99.90
5344;DHT22;2694;48.954;8.928;2024-01-16T07:40:24;-2.80;99.90
5344;DHT22;2694;48.954;8.928;2024-01-16T07:42:51;-2.80;99.90
5344;DHT22;2694;48.954;8.928;2024-01-16T07:45:18;-2.80;99.90
5344;DHT22;2694;48.954;8.928;2024-01-16T07:47:45;-2.80;99.90
5344;DHT22;2694;48.954;8.928;2024-01-16T07:50:14;-2.80;99.90
5344;DHT22;2694;48.954;8.928;2024-01-16T07:52:41;-2.70;99.90
5344;DHT22;2694;48.954;8.928;2024-01-16T07:55:08;-2.60;99.90
5344;DHT22;2694;48.954;8.928;2024-01-16T07:57:35;-2.50;99.90
5344;DHT22;2694;48.954;8.928;2024-01-16T08:00:02;-2.60;99.90
5344;DHT22;2694;48.954;8.928;2024-01-16T08:02:32;-2.50;99.90
5344;DHT22;2694;48.954;8.928;2024-01-16T08:04:59;-2.50;99.90
5344;DHT22;2694;48.954;8.928;2024-01-16T08:07:28;-2.50;99.90
5344;DHT22;2694;48.954;8.928;2024-01-16T08:09:55;-2.50;99.90
5344;DHT22;2694;48.954;8.928;2024-01-16T08:12:22;-2.40;99.90
5344;DHT22;2694;48.954;8.928;2024-01-16T08:14:48;-2.30;99.90
5344;DHT22;2694;48.954;8.928;2024-01-16T08:17:15;-2.30;99.90
5344;DHT22;2694;48.954;8.928;2024-01-16T08:19:42;-2.30;99.90
5344;DHT22;2694;48.954;8.928;2024-01-16T08:22:09;-2.10;99.90
5344;DHT22;2694;48.954;8.928;2024-01-16T08:24:38;-2.10;99.90
5344;DHT22;2694;48.954;8.928;2024-01-16T08:27:05;-1.90;99.90
5344;DHT22;2694;48.954;8.928;2024-01-16T08:29:32;-1.80;99.90
5344;DHT22;2694;48.954;8.928;2024-01-16T08:31:59;-1.70;99.90
5344;DHT22;2694;48.954;8.928;2024-01-16T08:34:25;-1.70;99.90
5344;DHT22;2694;48.954;8.928;2024-01-16T08:36:52;-1.70;99.90
5344;DHT22;2694;48.954;8.928;2024-01-16T08:39:22;-1.70;99.90
5344;DHT22;2694;48.954;8.928;2024-01-16T08:41:51;-1.50;99.90
5344;DHT22;2694;48.954;8.928;2024-01-16T08:44:17;-1.50;99.90
5344;DHT22;2694;48.954;8.928;2024-01-16T08:46:44;-1.50;99.90
5344;DHT22;2694;48.954;8.928;2024-01-16T08:49:11;-1.40;99.90
5344;DHT22;2694;48.954;8.928;2024-01-16T08:51:39;-1.20;99.90
5344;DHT22;2694;48.954;8.928;2024-01-16T08:54:06;-1.20;99.90
5344;DHT22;2694;48.954;8.928;2024-01-16T08:56:33;-1.10;99.90
5344;DHT22;2694;48.954;8.928;2024-01-16T08:59:01;-0.90;99.90
5344;DHT22;2694;48.954;8.928;2024-01-16T09:01:28;-0.80;99.90
5344;DHT22;2694;48.954;8.928;2024-01-16T09:03:56;-0.80;99.90
5344;DHT22;2694;48.954;8.928;2024-01-16T09:06:22;-0.70;99.90
5344;DHT22;2694;48.954;8.928;2024-01-16T09:08:49;-0.70;99.90
5344;DHT22;2694;48.954;8.928;2024-01-16T09:11:16;-0.50;99.90
5344;DHT22;2694;48.954;8.928;2024-01-16T09:13:43;-0.40;99.90
5344;DHT22;2694;48.954;8.928;2024-01-16T09:16:11;-0.60;99.90
5344;DHT22;2694;48.954;8.928;2024-01-16T09:18:38;-0.50;99.90
5344;DHT22;2694;48.954;8.928;2024-01-16T09:21:05;-0.50;99.90
5344;DHT22;2694;48.954;8.928;2024-01-16T09:23:32;-0.40;99.90
5344;DHT22;2694;48.954;8.928;2024-01-16T09:25:59;-0.30;99.90
5344;DHT22;2694;48.954;8.928;2024-01-16T09:28:25;-0.20;99.90
5344;DHT22;2694;48.954;8.928;2024-01-16T09:30:54;-0.10;99.90
5344;DHT22;2694;48.954;8.928;2024-01-16T09:33:23;-0.20;99.90
5344;DHT22;2694;48.954;8.928;2024-01-16T09:35:51;-0.20;99.90
5344;DHT22;2694;48.954;8.928;2024-01-16T09:38:18;-0.10;99.90
5344;DHT22;2694;48.954;8.928;2024-01-16T09:40:44;-0.20;99.90
5344;DHT22;2694;48.954;8.928;2024-01-16T09:43:12;-0.10;99.90
5344;DHT22;2694;48.954;8.928;2024-01-16T09:45:40;0.00;99.90
5344;DHT22;2694;48.954;8.928;2024-01-16T09:48:07;-0.10;99.90
5344;DHT22;2694;48.954;8.928;2024-01-16T09:50:36;0.10;99.90
5344;DHT22;2694;48.954;8.928;2024-01-16T09:53:03;0.20;99.90
5344;DHT22;2694;48.954;8.928;2024-01-16T09:55:30;0.20;99.90
5344;DHT22;2694;48.954;8.928;2024-01-16T09:57:57;0.20;99.90
5344;DHT22;2694;48.954;8.928;2024-01-16T10:00:24;0.30;99.90
5344;DHT22;2694;48.954;8.928;2024-01-16T10:02:53;0.40;99.90
5344;DHT22;2694;48.954;8.928;2024-01-16T10:05:24;0.50;99.90
5344;DHT22;2694;48.954;8.928;2024-01-16T10:07:52;0.60;99.90
5344;DHT22;2694;48.954;8.928;2024-01-16T10:10:19;0.70;99.90
5344;DHT22;2694;48.954;8.928;2024-01-16T10:12:48;0.80;99.90
5344;DHT22;2694;48.954;8.928;2024-01-16T10:15:16;1.00;99.90
5344;DHT22;2694;48.954;8.928;2024-01-16T10:17:44;0.90;99.90
5344;DHT22;2694;48.954;8.928;2024-01-16T10:20:11;0.80;99.90
5344;DHT22;2694;48.954;8.928;2024-01-16T10:22:40;0.80;99.90
5344;DHT22;2694;48.954;8.928;2024-01-16T10:25:10;0.90;99.90
5344;DHT22;2694;48.954;8.928;2024-01-16T10:27:39;1.00;99.90
5344;DHT22;2694;48.954;8.928;2024-01-16T10:30:07;1.00;99.90
5344;DHT22;2694;48.954;8.928;2024-01-16T10:32:35;1.10;99.90
5344;DHT22;2694;48.954;8.928;2024-01-16T10:35:07;1.30;99.90
5344;DHT22;2694;48.954;8.928;2024-01-16T10:37:47;1.40;99.90
5344;DHT22;2694;48.954;8.928;2024-01-16T10:40:17;1.50;99.90
5344;DHT22;2694;48.954;8.928;2024-01-16T10:42:44;1.70;99.90
5344;DHT22;2694;48.954;8.928;2024-01-16T10:45:17;1.70;99.90
5344;DHT22;2694;48.954;8.928;2024-01-16T10:47:46;1.80;99.90
5344;DHT22;2694;48.954;8.928;2024-01-16T10:50:12;1.90;99.90
5344;DHT22;2694;48.954;8.928;2024-01-16T10:52:47;1.90;99.90
5344;DHT22;2694;48.954;8.928;2024-01-16T10:55:20;2.20;99.90
5344;DHT22;2694;48.954;8.928;2024-01-16T10:57:48;2.40;99.90
5344;DHT22;2694;48.954;8.928;2024-01-16T11:00:18;2.50;99.90
5344;DHT22;2694;48.954;8.928;2024-01-16T11:02:50;2.60;99.90
5344;DHT22;2694;48.954;8.928;2024-01-16T11:05:17;2.60;99.90
5344;DHT22;2694;48.954;8.928;2024-01-16T11:07:45;2.70;99.90
5344;DHT22;2694;48.954;8.928;2024-01-16T11:10:13;2.80;99.90
5344;DHT22;2694;48.954;8.928;2024-01-16T11:12:41;2.60;99.90
5344;DHT22;2694;48.954;8.928;2024-01-16T11:15:10;2.50;99.90
5344;DHT22;2694;48.954;8.928;2024-01-16T11:17:38;2.50;99.90
5344;DHT22;2694;48.954;8.928;2024-01-16T11:20:09;2.40;99.90
5344;DHT22;2694;48.954;8.928;2024-01-16T11:22:37;2.40;99.90
5344;DHT22;2694;48.954;8.928;2024-01-16T11:25:10;2.50;99.90
5344;DHT22;2694;48.954;8.928;2024-01-16T11:27:37;2.50;99.90
5344;DHT22;2694;48.954;8.928;2024-01-16T11:30:07;2.60;99.90
5344;DHT22;2694;48.954;8.928;2024-01-16T11:32:36;2.50;99.90
5344;DHT22;2694;48.954;8.928;2024-01-16T11:35:03;2.30;99.90
5344;DHT22;2694;48.954;8.928;2024-01-16T11:37:31;2.30;99.90
5344;DHT22;2694;48.954;8.928;2024-01-16T11:40:20;2.50;99.90
5344;DHT22;2694;48.954;8.928;2024-01-16T11:42:47;2.80;99.90
5344;DHT22;2694;48.954;8.928;2024-01-16T11:45:49;2.80;99.90
5344;DHT22;2694;48.954;8.928;2024-01-16T11:48:17;2.80;99.90
5344;DHT22;2694;48.954;8.928;2024-01-16T11:50:45;2.80;99.90
5344;DHT22;2694;48.954;8.928;2024-01-16T11:53:33;2.70;99.90
5344;DHT22;2694;48.954;8.928;2024-01-16T11:56:31;2.80;99.90
5344;DHT22;2694;48.954;8.928;2024-01-16T11:59:14;2.80;99.90
5344;DHT22;2694;48.954;8.928;2024-01-16T12:01:45;2.80;99.90
5344;DHT22;2694;48.954;8.928;2024-01-16T12:04:15;2.90;99.90
5344;DHT22;2694;48.954;8.928;2024-01-16T12:06:43;3.00;99.90
5344;DHT22;2694;48.954;8.928;2024-01-16T12:09:14;2.90;99.90
5344;DHT22;2694;48.954;8.928;2024-01-16T12:11:41;2.80;99.90
5344;DHT22;2694;48.954;8.928;2024-01-16T12:14:11;2.80;99.90
5344;DHT22;2694;48.954;8.928;2024-01-16T12:16:41;2.80;99.90
5344;DHT22;2694;48.954;8.928;2024-01-16T12:19:10;2.90;99.90
5344;DHT22;2694;48.954;8.928;2024-01-16T12:21:41;2.90;99.90
5344;DHT22;2694;48.954;8.928;2024-01-16T12:24:08;3.20;99.90
5344;DHT22;2694;48.954;8.928;2024-01-16T12:26:35;3.20;99.90
5344;DHT22;2694;48.954;8.928;2024-01-16T12:29:02;3.30;99.90
5344;DHT22;2694;48.954;8.928;2024-01-16T12:31:29;3.30;99.60
5344;DHT22;2694;48.954;8.928;2024-01-16T12:34:05;3.00;99.90
5344;DHT22;2694;48.954;8.928;2024-01-16T12:36:34;2.80;99.90
5344;DHT22;2694;48.954;8.928;2024-01-16T12:39:01;2.60;99.90
5344;DHT22;2694;48.954;8.928;2024-01-16T12:41:32;2.60;99.90
5344;DHT22;2694;48.954;8.928;2024-01-16T12:44:02;2.70;99.80
5344;DHT22;2694;48.954;8.928;2024-01-16T12:46:29;2.50;99.90
5344;DHT22;2694;48.954;8.928;2024-01-16T12:49:01;2.50;99.30
5344;DHT22;2694;48.954;8.928;2024-01-16T12:51:28;2.50;99.50
5344;DHT22;2694;48.954;8.928;2024-01-16T12:54:10;2.50;99.20
5344;DHT22;2694;48.954;8.928;2024-01-16T12:56:37;2.60;99.30
5344;DHT22;2694;48.954;8.928;2024-01-16T12:59:09;2.60;99.90
5344;DHT22;2694;48.954;8.928;2024-01-16T13:01:40;2.70;99.90
5344;DHT22;2694;48.954;8.928;2024-01-16T13:04:08;2.90;99.90
5344;DHT22;2694;48.954;8.928;2024-01-16T13:06:36;3.10;99.90
5344;DHT22;2694;48.954;8.928;2024-01-16T13:09:08;3.30;99.40
5344;DHT22;2694;48.954;8.928;2024-01-16T13:11:49;3.40;99.60
5344;DHT22;2694;48.954;8.928;2024-01-16T13:14:17;3.50;99.50
5344;DHT22;2694;48.954;8.928;2024-01-16T13:16:44;3.40;99.60
5344;DHT22;2694;48.954;8.928;2024-01-16T13:19:11;3.40;99.60
5344;DHT22;2694;48.954;8.928;2024-01-16T13:21:38;3.40;99.20
5344;DHT22;2694;48.954;8.928;2024-01-16T13:24:07;3.50;99.30
5344;DHT22;2694;48.954;8.928;2024-01-16T13:26:34;3.50;99.40
5344;DHT22;2694;48.954;8.928;2024-01-16T13:29:02;3.60;99.00
5344;DHT22;2694;48.954;8.928;2024-01-16T13:31:31;3.80;98.60
5344;DHT22;2694;48.954;8.928;2024-01-16T13:33:58;3.80;98.30
5344;DHT22;2694;48.954;8.928;2024-01-16T13:36:25;3.90;98.20
5344;DHT22;2694;48.954;8.928;2024-01-16T13:38:52;4.10;98.40
5344;DHT22;2694;48.954;8.928;2024-01-16T13:41:20;4.00;98.00
5344;DHT22;2694;48.954;8.928;2024-01-16T13:43:47;3.90;97.60
5344;DHT22;2694;48.954;8.928;2024-01-16T13:46:15;3.70;97.40
5344;DHT22;2694;48.954;8.928;2024-01-16T13:48:43;3.60;97.50
5344;DHT22;2694;48.954;8.928;2024-01-16T13:51:10;3.40;97.60
5344;DHT22;2694;48.954;8.928;2024-01-16T13:53:37;3.30;97.60
5344;DHT22;2694;48.954;8.928;2024-01-16T13:56:04;3.30;98.00
5344;DHT22;2694;48.954;8.928;2024-01-16T13:58:32;3.20;97.70
5344;DHT22;2694;48.954;8.928;2024-01-16T14:01:00;3.10;98.00
5344;DHT22;2694;48.954;8.928;2024-01-16T14:03:27;3.00;98.50
5344;DHT22;2694;48.954;8.928;2024-01-16T14:05:54;2.90;98.20
5344;DHT22;2694;48.954;8.928;2024-01-16T14:08:21;2.90;98.30
5344;DHT22;2694;48.954;8.928;2024-01-16T14:10:48;2.90;98.10
5344;DHT22;2694;48.954;8.928;2024-01-16T14:13:15;2.80;98.10
5344;DHT22;2694;48.954;8.928;2024-01-16T14:15:43;2.80;98.50
5344;DHT22;2694;48.954;8.928;2024-01-16T14:18:10;2.70;98.00
5344;DHT22;2694;48.954;8.928;2024-01-16T14:20:36;2.60;98.10
5344;DHT22;2694;48.954;8.928;2024-01-16T14:23:04;2.50;97.70
5344;DHT22;2694;48.954;8.928;2024-01-16T14:25:31;2.40;97.70
5344;DHT22;2694;48.954;8.928;2024-01-16T14:28:00;2.40;97.80
5344;DHT22;2694;48.954;8.928;2024-01-16T14:30:29;2.20;98.00
5344;DHT22;2694;48.954;8.928;2024-01-16T14:32:57;2.20;98.30
5344;DHT22;2694;48.954;8.928;2024-01-16T14:35:24;2.10;98.20
5344;DHT22;2694;48.954;8.928;2024-01-16T14:37:51;2.00;98.40
5344;DHT22;2694;48.954;8.928;2024-01-16T14:40:19;2.00;98.90
5344;DHT22;2694;48.954;8.928;2024-01-16T14:42:51;2.00;98.50
5344;DHT22;2694;48.954;8.928;2024-01-16T14:45:19;1.90;98.70
5344;DHT22;2694;48.954;8.928;2024-01-16T14:47:49;1.80;98.90
5344;DHT22;2694;48.954;8.928;2024-01-16T14:50:18;1.70;98.60
5344;DHT22;2694;48.954;8.928;2024-01-16T14:52:47;1.60;98.80
5344;DHT22;2694;48.954;8.928;2024-01-16T14:55:15;1.60;99.20
5344;DHT22;2694;48.954;8.928;2024-01-16T14:57:42;1.50;99.50
5344;DHT22;2694;48.954;8.928;2024-01-16T15:00:14;1.50;99.50
5344;DHT22;2694;48.954;8.928;2024-01-16T15:02:46;1.40;99.50
5344;DHT22;2694;48.954;8.928;2024-01-16T15:05:14;1.40;99.80
5344;DHT22;2694;48.954;8.928;2024-01-16T15:07:42;1.30;99.60
5344;DHT22;2694;48.954;8.928;2024-01-16T15:10:09;1.30;99.90
5344;DHT22;2694;48.954;8.928;2024-01-16T15:12:38;1.20;99.90
5344;DHT22;2694;48.954;8.928;2024-01-16T15:15:06;1.10;99.90
5344;DHT22;2694;48.954;8.928;2024-01-16T15:17:34;1.10;99.90
5344;DHT22;2694;48.954;8.928;2024-01-16T15:20:01;1.00;99.90
5344;DHT22;2694;48.954;8.928;2024-01-16T15:22:28;1.00;99.90
5344;DHT22;2694;48.954;8.928;2024-01-16T15:24:56;0.90;99.90
5344;DHT22;2694;48.954;8.928;2024-01-16T15:27:23;0.90;99.90
5344;DHT22;2694;48.954;8.928;2024-01-16T15:29:50;0.90;99.90
5344;DHT22;2694;48.954;8.928;2024-01-16T15:32:20;0.80;99.90
5344;DHT22;2694;48.954;8.928;2024-01-16T15:34:47;0.80;99.90
5344;DHT22;2694;48.954;8.928;2024-01-16T15:37:14;0.60;99.90
5344;DHT22;2694;48.954;8.928;2024-01-16T15:39:41;0.50;99.90
5344;DHT22;2694;48.954;8.928;2024-01-16T15:42:09;0.40;99.90
5344;DHT22;2694;48.954;8.928;2024-01-16T15:44:37;0.30;99.90
5344;DHT22;2694;48.954;8.928;2024-01-16T15:47:04;0.20;99.90
5344;DHT22;2694;48.954;8.928;2024-01-16T15:49:33;0.00;99.90
5344;DHT22;2694;48.954;8.928;2024-01-16T15:52:03;-0.10;99.90
5344;DHT22;2694;48.954;8.928;2024-01-16T15:54:33;-0.20;99.90
5344;DHT22;2694;48.954;8.928;2024-01-16T15:57:00;-0.30;99.90
5344;DHT22;2694;48.954;8.928;2024-01-16T15:59:28;-0.40;99.90
5344;DHT22;2694;48.954;8.928;2024-01-16T16:01:55;-0.50;99.90
5344;DHT22;2694;48.954;8.928;2024-01-16T16:04:22;-0.60;99.90
5344;DHT22;2694;48.954;8.928;2024-01-16T16:06:50;-0.70;99.90
5344;DHT22;2694;48.954;8.928;2024-01-16T16:09:17;-0.70;99.90
5344;DHT22;2694;48.954;8.928;2024-01-16T16:11:44;-0.80;99.90